Houghton Lake, Roscommon County – Blodgett Memorial Airport (KHTL)

NameRoscommon County – Blodgett Memorial Airport
CityHoughton Lake
CountryUnited States
ICAOKHTL
IATAHTL
Altitude351 m
CoordinatesGoogle Map
Live Air TrafficLiveATC.net
METARKHTL 170953Z AUTO 31006KT 10SM BKN017 BKN022 OVC031 05/02 A2986 RMK AO2 SLP121 T00500022
2019-10-17 09:53:00 Wind: West-Northwest (310°) 3.09 m/s - Visibility: 16093.4 m - Temperature: 5 °C - Dew point: 2 °C - Humidity: 81.2% - Pressure: 1011.18 hPa

Sorry, no flights used the airport in this database.